sensor_id;sensor_type;location;lat;lon;timestamp;P1;durP1;ratioP1;P2;durP2;ratioP2
20104;SDS011;10212;42.714;23.310;2023-03-11T00:07:48;6.60;;;2.58;;
20104;SDS011;10212;42.714;23.310;2023-03-11T00:17:49;2.22;;;1.45;;
20104;SDS011;10212;42.714;23.310;2023-03-11T00:27:50;4.10;;;1.40;;
20104;SDS011;10212;42.714;23.310;2023-03-11T00:37:54;1.52;;;0.60;;
20104;SDS011;10212;42.714;23.310;2023-03-11T00:47:57;0.93;;;0.75;;
20104;SDS011;10212;42.714;23.310;2023-03-11T00:57:58;1.13;;;0.60;;
20104;SDS011;10212;42.714;23.310;2023-03-11T01:08:01;0.70;;;0.70;;
20104;SDS011;10212;42.714;23.310;2023-03-11T01:18:03;2.25;;;0.80;;
20104;SDS011;10212;42.714;23.310;2023-03-11T01:28:04;1.88;;;0.90;;
20104;SDS011;10212;42.714;23.310;2023-03-11T01:38:07;1.77;;;1.00;;
20104;SDS011;10212;42.714;23.310;2023-03-11T01:48:08;2.15;;;1.30;;
20104;SDS011;10212;42.714;23.310;2023-03-11T01:58:10;1.23;;;1.08;;
20104;SDS011;10212;42.714;23.310;2023-03-11T02:08:15;2.05;;;1.50;;
20104;SDS011;10212;42.714;23.310;2023-03-11T02:18:16;2.83;;;1.95;;
20104;SDS011;10212;42.714;23.310;2023-03-11T02:28:21;2.00;;;1.88;;
20104;SDS011;10212;42.714;23.310;2023-03-11T02:38:23;2.38;;;1.30;;
20104;SDS011;10212;42.714;23.310;2023-03-11T02:48:23;3.22;;;1.70;;
20104;SDS011;10212;42.714;23.310;2023-03-11T02:58:25;1.88;;;1.25;;
20104;SDS011;10212;42.714;23.310;2023-03-11T03:08:25;1.75;;;0.93;;
20104;SDS011;10212;42.714;23.310;2023-03-11T03:18:26;1.55;;;0.85;;
20104;SDS011;10212;42.714;23.310;2023-03-11T03:28:26;0.70;;;0.70;;
20104;SDS011;10212;42.714;23.310;2023-03-11T03:38:27;1.67;;;0.88;;
20104;SDS011;10212;42.714;23.310;2023-03-11T03:48:29;4.38;;;1.30;;
20104;SDS011;10212;42.714;23.310;2023-03-11T03:58:31;5.38;;;2.50;;
20104;SDS011;10212;42.714;23.310;2023-03-11T04:08:32;1.95;;;0.70;;
20104;SDS011;10212;42.714;23.310;2023-03-11T04:18:34;0.90;;;0.60;;
20104;SDS011;10212;42.714;23.310;2023-03-11T04:28:34;0.47;;;0.47;;
20104;SDS011;10212;42.714;23.310;2023-03-11T04:38:35;0.60;;;0.55;;
20104;SDS011;10212;42.714;23.310;2023-03-11T04:48:35;2.70;;;0.70;;
20104;SDS011;10212;42.714;23.310;2023-03-11T04:58:35;0.75;;;0.52;;
20104;SDS011;10212;42.714;23.310;2023-03-11T05:08:36;0.43;;;0.43;;
20104;SDS011;10212;42.714;23.310;2023-03-11T05:18:36;0.70;;;0.52;;
20104;SDS011;10212;42.714;23.310;2023-03-11T05:28:37;0.57;;;0.57;;
20104;SDS011;10212;42.714;23.310;2023-03-11T05:38:37;1.15;;;0.60;;
20104;SDS011;10212;42.714;23.310;2023-03-11T05:48:38;2.80;;;0.95;;
20104;SDS011;10212;42.714;23.310;2023-03-11T05:58:38;1.25;;;1.05;;
20104;SDS011;10212;42.714;23.310;2023-03-11T06:08:39;2.80;;;0.95;;
20104;SDS011;10212;42.714;23.310;2023-03-11T06:18:44;4.28;;;1.70;;
20104;SDS011;10212;42.714;23.310;2023-03-11T06:28:45;2.53;;;1.30;;
20104;SDS011;10212;42.714;23.310;2023-03-11T06:38:47;3.13;;;1.30;;
20104;SDS011;10212;42.714;23.310;2023-03-11T06:48:50;2.83;;;1.60;;
20104;SDS011;10212;42.714;23.310;2023-03-11T06:58:53;10.68;;;4.97;;
20104;SDS011;10212;42.714;23.310;2023-03-11T07:08:54;8.55;;;4.90;;
20104;SDS011;10212;42.714;23.310;2023-03-11T07:18:58;5.47;;;4.03;;
20104;SDS011;10212;42.714;23.310;2023-03-11T07:29:01;6.47;;;3.70;;
20104;SDS011;10212;42.714;23.310;2023-03-11T07:39:03;5.43;;;2.60;;
20104;SDS011;10212;42.714;23.310;2023-03-11T07:49:04;1.63;;;1.35;;
20104;SDS011;10212;42.714;23.310;2023-03-11T07:59:05;2.17;;;1.13;;
20104;SDS011;10212;42.714;23.310;2023-03-11T08:09:07;2.58;;;1.30;;
20104;SDS011;10212;42.714;23.310;2023-03-11T08:19:11;1.58;;;1.00;;
20104;SDS011;10212;42.714;23.310;2023-03-11T08:29:12;3.28;;;1.55;;
20104;SDS011;10212;42.714;23.310;2023-03-11T08:39:13;3.58;;;1.13;;
20104;SDS011;10212;42.714;23.310;2023-03-11T08:49:13;2.67;;;0.90;;
20104;SDS011;10212;42.714;23.310;2023-03-11T08:59:14;1.15;;;0.80;;
20104;SDS011;10212;42.714;23.310;2023-03-11T09:09:15;1.20;;;0.90;;
20104;SDS011;10212;42.714;23.310;2023-03-11T09:19:17;2.65;;;1.40;;
20104;SDS011;10212;42.714;23.310;2023-03-11T09:29:17;2.35;;;0.90;;
20104;SDS011;10212;42.714;23.310;2023-03-11T09:39:18;1.63;;;0.80;;
20104;SDS011;10212;42.714;23.310;2023-03-11T09:59:26;2.08;;;0.90;;
20104;SDS011;10212;42.714;23.310;2023-03-11T10:09:42;1.52;;;1.00;;
20104;SDS011;10212;42.714;23.310;2023-03-11T10:30:05;2.80;;;1.10;;
20104;SDS011;10212;42.714;23.310;2023-03-11T10:40:18;2.17;;;1.15;;
20104;SDS011;10212;42.714;23.310;2023-03-11T10:50:25;4.85;;;1.88;;
20104;SDS011;10212;42.714;23.310;2023-03-11T11:00:28;1.70;;;1.10;;
20104;SDS011;10212;42.714;23.310;2023-03-11T11:10:30;2.22;;;0.82;;
20104;SDS011;10212;42.714;23.310;2023-03-11T11:20:33;5.20;;;1.40;;
20104;SDS011;10212;42.714;23.310;2023-03-11T11:30:34;4.22;;;1.70;;
20104;SDS011;10212;42.714;23.310;2023-03-11T11:40:34;2.53;;;2.00;;
20104;SDS011;10212;42.714;23.310;2023-03-11T11:50:36;2.70;;;1.50;;
20104;SDS011;10212;42.714;23.310;2023-03-11T12:10:55;2.90;;;1.15;;
20104;SDS011;10212;42.714;23.310;2023-03-11T12:20:59;2.10;;;0.90;;
20104;SDS011;10212;42.714;23.310;2023-03-11T12:31:26;2.20;;;1.05;;
20104;SDS011;10212;42.714;23.310;2023-03-11T12:41:34;2.83;;;0.90;;
20104;SDS011;10212;42.714;23.310;2023-03-11T12:51:39;3.67;;;1.10;;
20104;SDS011;10212;42.714;23.310;2023-03-11T13:01:43;1.98;;;0.98;;
20104;SDS011;10212;42.714;23.310;2023-03-11T13:11:52;2.53;;;1.30;;
20104;SDS011;10212;42.714;23.310;2023-03-11T13:21:53;1.83;;;1.10;;
20104;SDS011;10212;42.714;23.310;2023-03-11T13:52:46;1.73;;;0.80;;
20104;SDS011;10212;42.714;23.310;2023-03-11T14:02:56;2.63;;;1.00;;
20104;SDS011;10212;42.714;23.310;2023-03-11T14:13:19;4.18;;;2.35;;
20104;SDS011;10212;42.714;23.310;2023-03-11T14:23:27;3.00;;;1.67;;
20104;SDS011;10212;42.714;23.310;2023-03-11T14:33:40;2.35;;;1.40;;
20104;SDS011;10212;42.714;23.310;2023-03-11T14:43:42;3.50;;;1.70;;
20104;SDS011;10212;42.714;23.310;2023-03-11T14:54:04;3.50;;;1.40;;
20104;SDS011;10212;42.714;23.310;2023-03-11T15:04:11;5.72;;;3.38;;
20104;SDS011;10212;42.714;23.310;2023-03-11T15:14:26;6.10;;;2.40;;
20104;SDS011;10212;42.714;23.310;2023-03-11T15:24:31;4.75;;;2.30;;
20104;SDS011;10212;42.714;23.310;2023-03-11T15:34:32;4.65;;;2.90;;
20104;SDS011;10212;42.714;23.310;2023-03-11T15:54:42;6.40;;;5.22;;
20104;SDS011;10212;42.714;23.310;2023-03-11T16:04:42;9.25;;;7.47;;
20104;SDS011;10212;42.714;23.310;2023-03-11T16:14:43;8.35;;;5.82;;
20104;SDS011;10212;42.714;23.310;2023-03-11T16:24:44;6.18;;;4.57;;
20104;SDS011;10212;42.714;23.310;2023-03-11T16:34:47;5.45;;;3.78;;
20104;SDS011;10212;42.714;23.310;2023-03-11T16:44:48;3.92;;;2.58;;
20104;SDS011;10212;42.714;23.310;2023-03-11T16:54:48;3.75;;;2.40;;
20104;SDS011;10212;42.714;23.310;2023-03-11T17:04:49;2.83;;;2.53;;
20104;SDS011;10212;42.714;23.310;2023-03-11T17:14:50;4.65;;;2.75;;
20104;SDS011;10212;42.714;23.310;2023-03-11T17:24:51;4.97;;;2.60;;
20104;SDS011;10212;42.714;23.310;2023-03-11T17:34:52;4.03;;;2.40;;
20104;SDS011;10212;42.714;23.310;2023-03-11T17:44:56;3.72;;;2.22;;
20104;SDS011;10212;42.714;23.310;2023-03-11T17:54:56;3.17;;;2.20;;
20104;SDS011;10212;42.714;23.310;2023-03-11T18:04:57;2.73;;;1.87;;
20104;SDS011;10212;42.714;23.310;2023-03-11T18:14:57;4.53;;;2.07;;
20104;SDS011;10212;42.714;23.310;2023-03-11T18:24:58;1.50;;;1.40;;
20104;SDS011;10212;42.714;23.310;2023-03-11T18:34:58;4.85;;;1.95;;
20104;SDS011;10212;42.714;23.310;2023-03-11T18:44:59;2.70;;;1.60;;
20104;SDS011;10212;42.714;23.310;2023-03-11T18:55:01;1.70;;;1.58;;
20104;SDS011;10212;42.714;23.310;2023-03-11T19:05:03;1.63;;;1.27;;
20104;SDS011;10212;42.714;23.310;2023-03-11T19:15:04;3.50;;;1.50;;
20104;SDS011;10212;42.714;23.310;2023-03-11T19:25:06;2.72;;;1.17;;
20104;SDS011;10212;42.714;23.310;2023-03-11T19:35:07;1.98;;;1.30;;
20104;SDS011;10212;42.714;23.310;2023-03-11T19:45:10;2.13;;;1.55;;
20104;SDS011;10212;42.714;23.310;2023-03-11T19:55:11;4.03;;;1.40;;
20104;SDS011;10212;42.714;23.310;2023-03-11T20:05:11;3.33;;;1.45;;
20104;SDS011;10212;42.714;23.310;2023-03-11T20:15:12;2.85;;;1.40;;
20104;SDS011;10212;42.714;23.310;2023-03-11T20:25:12;1.30;;;1.20;;
20104;SDS011;10212;42.714;23.310;2023-03-11T20:35:15;3.38;;;1.60;;
20104;SDS011;10212;42.714;23.310;2023-03-11T20:45:16;2.90;;;1.70;;
20104;SDS011;10212;42.714;23.310;2023-03-11T20:55:20;2.47;;;1.60;;
20104;SDS011;10212;42.714;23.310;2023-03-11T21:05:21;1.48;;;1.38;;
20104;SDS011;10212;42.714;23.310;2023-03-11T21:15:22;2.05;;;1.85;;
20104;SDS011;10212;42.714;23.310;2023-03-11T21:25:22;3.78;;;1.52;;
20104;SDS011;10212;42.714;23.310;2023-03-11T21:35:23;2.40;;;2.10;;
20104;SDS011;10212;42.714;23.310;2023-03-11T21:45:23;4.82;;;2.70;;
20104;SDS011;10212;42.714;23.310;2023-03-11T21:55:24;5.32;;;2.20;;
20104;SDS011;10212;42.714;23.310;2023-03-11T22:05:24;3.85;;;1.60;;
20104;SDS011;10212;42.714;23.310;2023-03-11T22:15:25;3.83;;;1.88;;
20104;SDS011;10212;42.714;23.310;2023-03-11T22:25:26;5.00;;;2.33;;
20104;SDS011;10212;42.714;23.310;2023-03-11T22:35:26;4.82;;;1.98;;
20104;SDS011;10212;42.714;23.310;2023-03-11T22:45:27;10.43;;;2.40;;
20104;SDS011;10212;42.714;23.310;2023-03-11T23:05:28;7.03;;;3.28;;
20104;SDS011;10212;42.714;23.310;2023-03-11T23:15:29;8.83;;;3.03;;
20104;SDS011;10212;42.714;23.310;2023-03-11T23:25:29;7.25;;;3.10;;
20104;SDS011;10212;42.714;23.310;2023-03-11T23:35:31;6.88;;;3.25;;
20104;SDS011;10212;42.714;23.310;2023-03-11T23:45:31;5.88;;;2.72;;
